createdAt,value
2023-04-25T00:03:16.635Z,2.92
2023-04-25T00:08:18.878Z,3.05
2023-04-25T00:13:21.407Z,3.05
2023-04-25T00:18:23.669Z,3.17
2023-04-25T00:23:25.768Z,3.42
2023-04-25T00:28:27.718Z,3.03
2023-04-25T00:33:29.891Z,3.60
2023-04-25T00:38:31.961Z,3.53
2023-04-25T00:43:35.072Z,3.72
2023-04-25T00:48:36.966Z,3.83
2023-04-25T00:53:38.948Z,3.53
2023-04-25T00:58:42.805Z,3.97
2023-04-25T01:03:48.141Z,3.65
2023-04-25T01:08:50.160Z,3.85
2023-04-25T01:13:52.777Z,3.90
2023-04-25T01:18:56.138Z,3.92
2023-04-25T01:23:58.312Z,4.30
2023-04-25T01:29:01.044Z,4.95
2023-04-25T01:34:02.991Z,4.07
2023-04-25T01:39:05.049Z,4.13
2023-04-25T01:44:07.006Z,3.60
2023-04-25T01:49:10.151Z,4.57
2023-04-25T01:54:12.598Z,3.70
2023-04-25T01:59:14.504Z,4.40
2023-04-25T02:04:41.083Z,4.60
2023-04-25T02:09:43.985Z,4.35
2023-04-25T02:14:47.601Z,5.05
2023-04-25T02:20:01.050Z,4.75
2023-04-25T02:25:03.452Z,4.70
2023-04-25T02:30:07.695Z,5.20
2023-04-25T02:35:10.328Z,4.50
2023-04-25T02:40:12.474Z,4.97
2023-04-25T02:45:14.433Z,5.28
2023-04-25T02:50:16.323Z,5.60
2023-04-25T02:55:18.424Z,5.05
2023-04-25T03:00:21.475Z,4.78
2023-04-25T03:05:23.426Z,4.80
2023-04-25T03:10:25.467Z,5.15
2023-04-25T03:15:27.723Z,4.55
2023-04-25T03:20:30.016Z,4.65
2023-04-25T03:25:32.540Z,5.22
2023-04-25T03:30:34.541Z,5.28
2023-04-25T03:35:36.952Z,5.03
2023-04-25T03:40:39.254Z,4.95
2023-04-25T03:45:52.146Z,4.93
2023-04-25T03:50:57.002Z,5.22
2023-04-25T03:55:59.557Z,5.43
2023-04-25T04:01:03.846Z,5.43
2023-04-25T04:06:08.300Z,5.65
2023-04-25T04:11:16.229Z,5.67
2023-04-25T04:16:18.184Z,4.88
2023-04-25T04:21:20.300Z,5.13
2023-04-25T04:26:25.375Z,5.43
2023-04-25T04:36:36.109Z,5.07
2023-04-25T04:41:38.430Z,5.47
2023-04-25T04:47:07.508Z,4.90
2023-04-25T04:52:28.110Z,4.68
2023-04-25T04:57:56.527Z,5.05
2023-04-25T05:03:28.577Z,5.05
2023-04-25T05:09:00.130Z,4.60
2023-04-25T05:14:20.462Z,4.40
2023-04-25T05:19:41.107Z,4.63
2023-04-25T05:25:09.067Z,4.88
2023-04-25T05:30:36.899Z,4.28
2023-04-25T05:35:46.451Z,3.93
2023-04-25T05:40:49.452Z,4.32
2023-04-25T05:46:08.097Z,4.28
2023-04-25T05:51:24.890Z,4.38
2023-04-25T05:56:45.117Z,4.30
2023-04-25T06:01:47.815Z,3.72
2023-04-25T06:06:49.871Z,4.00
2023-04-25T06:11:51.661Z,4.18
2023-04-25T06:16:54.158Z,4.00
2023-04-25T06:21:55.994Z,4.63
2023-04-25T06:26:58.111Z,4.70
2023-04-25T06:32:00.676Z,4.55
2023-04-25T06:37:02.788Z,4.38
2023-04-25T06:42:04.911Z,4.40
2023-04-25T06:47:16.548Z,5.05
2023-04-25T06:52:19.189Z,4.47
2023-04-25T06:57:22.029Z,5.03
2023-04-25T07:02:24.560Z,5.10
2023-04-25T07:07:28.338Z,5.40
2023-04-25T07:12:33.013Z,4.85
2023-04-25T07:17:35.458Z,5.53
2023-04-25T07:22:37.426Z,5.47
2023-04-25T07:27:40.445Z,5.53
2023-04-25T07:38:09.240Z,4.45
2023-04-25T07:43:13.482Z,3.75
2023-04-25T07:48:23.780Z,3.33
2023-04-25T07:53:28.172Z,2.38
2023-04-25T07:58:35.163Z,2.13
2023-04-25T08:03:40.065Z,2.53
2023-04-25T08:08:49.504Z,2.50
2023-04-25T08:13:54.577Z,2.78
2023-04-25T08:18:58.077Z,2.30
2023-04-25T08:24:00.105Z,2.50
2023-04-25T08:29:06.715Z,2.42
2023-04-25T08:34:11.001Z,2.67
2023-04-25T08:39:18.559Z,2.20
2023-04-25T08:44:37.726Z,2.42
2023-04-25T08:49:45.784Z,2.30
2023-04-25T08:54:50.188Z,2.90
2023-04-25T08:59:54.200Z,2.58
2023-04-25T09:04:58.522Z,2.15
2023-04-25T09:10:03.005Z,3.45
2023-04-25T09:15:12.385Z,3.00
2023-04-25T09:20:35.333Z,3.28
2023-04-25T09:25:40.387Z,3.08
2023-04-25T09:30:47.178Z,3.75
2023-04-25T09:36:12.302Z,3.80
2023-04-25T09:41:32.114Z,3.15
2023-04-25T09:46:39.938Z,3.58
2023-04-25T09:52:01.336Z,3.90
2023-04-25T09:57:19.192Z,2.50
2023-04-25T10:02:28.935Z,2.83
2023-04-25T10:07:39.445Z,3.42
2023-04-25T10:12:47.052Z,4.28
2023-04-25T10:17:51.126Z,4.28
2023-04-25T10:22:57.671Z,4.75
2023-04-25T10:28:02.166Z,4.90
2023-04-25T10:33:18.659Z,4.32
2023-04-25T10:38:20.771Z,5.00
2023-04-25T10:43:38.957Z,5.13
2023-04-25T10:48:48.064Z,5.82
2023-04-25T10:53:56.308Z,5.87
2023-04-25T10:59:16.802Z,5.13
2023-04-25T11:04:26.551Z,4.72
2023-04-25T11:09:29.161Z,5.55
2023-04-25T11:14:31.062Z,5.82
2023-04-25T11:19:33.396Z,5.95
2023-04-25T11:24:37.443Z,6.68
2023-04-25T11:29:39.273Z,5.97
2023-04-25T11:34:44.647Z,6.30
2023-04-25T11:39:49.840Z,4.03
2023-04-25T11:44:52.915Z,2.65
2023-04-25T11:49:55.205Z,3.05
2023-04-25T11:54:58.180Z,3.10
2023-04-25T12:00:27.024Z,3.50
2023-04-25T12:05:33.786Z,4.10
2023-04-25T12:10:39.830Z,3.08
2023-04-25T12:15:42.090Z,2.72
2023-04-25T12:20:44.245Z,3.17
2023-04-25T12:25:48.252Z,3.42
2023-04-25T12:31:08.717Z,2.42
2023-04-25T12:36:12.733Z,2.63
2023-04-25T12:41:14.566Z,3.13
2023-04-25T12:46:16.477Z,2.30
2023-04-25T12:51:18.345Z,2.97
2023-04-25T12:56:22.328Z,2.60
2023-04-25T13:01:27.590Z,2.97
2023-04-25T13:06:31.120Z,3.58
2023-04-25T13:11:32.888Z,3.33
2023-04-25T13:16:34.829Z,3.92
2023-04-25T13:21:36.931Z,4.25
2023-04-25T13:26:38.952Z,3.90
2023-04-25T13:31:40.757Z,4.18
2023-04-25T13:36:42.665Z,3.90
2023-04-25T13:41:44.430Z,3.70
2023-04-25T13:46:47.954Z,3.47
2023-04-25T13:51:49.852Z,3.97
2023-04-25T13:56:51.749Z,3.83
2023-04-25T14:01:53.666Z,4.53
2023-04-25T14:06:56.295Z,4.32
2023-04-25T14:11:58.173Z,3.13
2023-04-25T14:17:00.075Z,3.00
2023-04-25T14:22:01.949Z,3.47
2023-04-25T14:27:04.449Z,3.40
2023-04-25T14:32:06.562Z,4.05
2023-04-25T14:37:08.375Z,3.63
2023-04-25T14:42:10.138Z,3.60
2023-04-25T14:47:12.063Z,3.80
2023-04-25T14:52:13.805Z,5.30
2023-04-25T14:57:16.385Z,4.78
2023-04-25T15:02:18.749Z,3.95
2023-04-25T15:07:20.728Z,3.30
2023-04-25T15:12:22.614Z,4.28
2023-04-25T15:17:24.427Z,4.45
2023-04-25T15:22:26.441Z,3.90
2023-04-25T15:27:28.399Z,3.25
2023-04-25T15:32:30.179Z,3.50
2023-04-25T15:37:32.289Z,2.60
2023-04-25T15:42:34.129Z,2.72
2023-04-25T15:47:36.973Z,2.50
2023-04-25T15:52:39.355Z,2.35
2023-04-25T15:57:43.858Z,2.20
2023-04-25T16:02:47.021Z,2.30
2023-04-25T16:07:49.404Z,2.42
2023-04-25T16:12:51.408Z,2.60
2023-04-25T16:17:53.258Z,2.58
2023-04-25T16:22:55.617Z,2.13
2023-04-25T16:27:57.441Z,2.45
2023-04-25T16:32:59.330Z,3.70
2023-04-25T16:38:01.223Z,6.95
2023-04-25T16:43:03.031Z,2.58
2023-04-25T16:48:04.925Z,2.17
2023-04-25T16:53:06.757Z,2.55
2023-04-25T16:58:11.293Z,3.13
2023-04-25T17:03:13.392Z,1.92
2023-04-25T17:08:15.287Z,2.25
2023-04-25T17:13:17.221Z,1.55
2023-04-25T17:18:19.048Z,1.90
2023-04-25T17:23:21.353Z,1.90
2023-04-25T17:28:23.237Z,1.70
2023-04-25T17:33:27.139Z,2.13
2023-04-25T17:38:29.070Z,2.35
2023-04-25T17:43:31.536Z,2.28
2023-04-25T17:48:33.343Z,3.38
2023-04-25T17:53:35.930Z,1.88
2023-04-25T17:58:38.224Z,1.90
2023-04-25T18:03:40.609Z,2.25
2023-04-25T18:08:42.526Z,2.05
2023-04-25T18:13:44.305Z,2.30
2023-04-25T18:18:53.284Z,2.00
2023-04-25T18:23:55.704Z,2.15
2023-04-25T18:28:57.479Z,2.05
2023-04-25T18:33:59.564Z,1.98
2023-04-25T18:39:15.111Z,3.53
2023-04-25T18:44:23.561Z,2.20
2023-04-25T18:49:25.391Z,2.25
2023-04-25T18:54:27.285Z,3.75
2023-04-25T18:59:29.232Z,2.80
2023-04-25T19:04:31.465Z,2.30
2023-04-25T19:09:33.571Z,2.25
2023-04-25T19:14:36.267Z,2.75
2023-04-25T19:19:38.403Z,2.15
2023-04-25T19:24:40.968Z,2.38
2023-04-25T19:29:48.121Z,2.42
2023-04-25T19:34:50.222Z,2.40
2023-04-25T19:39:52.041Z,2.58
2023-04-25T19:44:53.955Z,2.90
2023-04-25T19:49:55.767Z,2.97
2023-04-25T19:55:02.275Z,2.67
2023-04-25T20:00:12.072Z,2.00
2023-04-25T20:05:18.498Z,2.08
2023-04-25T20:10:20.496Z,2.10
2023-04-25T20:15:22.356Z,2.67
2023-04-25T20:20:24.203Z,2.72
2023-04-25T20:25:26.098Z,2.08
2023-04-25T20:30:27.953Z,1.90
2023-04-25T20:35:31.417Z,2.10
2023-04-25T20:40:33.210Z,1.73
2023-04-25T20:45:36.211Z,1.80
2023-04-25T20:50:38.619Z,2.25
2023-04-25T20:55:41.972Z,1.75
2023-04-25T21:00:44.142Z,1.92
2023-04-25T21:05:47.004Z,2.88
2023-04-25T21:10:49.541Z,2.45
2023-04-25T21:15:53.009Z,2.53
2023-04-25T21:20:54.834Z,1.90
2023-04-25T21:25:57.234Z,2.40
2023-04-25T21:30:59.469Z,1.80
2023-04-25T21:36:01.283Z,1.95
2023-04-25T21:41:03.378Z,1.95
2023-04-25T21:51:09.969Z,1.98
2023-04-25T21:56:12.502Z,1.60
2023-04-25T22:01:15.854Z,1.85
2023-04-25T22:06:17.733Z,1.30
2023-04-25T22:11:19.580Z,1.70
2023-04-25T22:16:21.399Z,1.50
2023-04-25T22:21:24.460Z,1.52
2023-04-25T22:26:26.257Z,2.20
2023-04-25T22:31:29.120Z,1.63
2023-04-25T22:36:30.954Z,1.50
2023-04-25T22:41:32.720Z,2.13
2023-04-25T22:46:34.502Z,1.98
2023-04-25T22:51:37.114Z,2.13
2023-04-25T22:56:38.909Z,2.13
2023-04-25T23:01:40.754Z,2.28
2023-04-25T23:06:42.795Z,2.05
2023-04-25T23:11:44.842Z,1.73
2023-04-25T23:16:46.955Z,2.53
2023-04-25T23:21:48.958Z,2.25
2023-04-25T23:26:50.823Z,2.30
2023-04-25T23:31:52.631Z,2.20
2023-04-25T23:36:54.396Z,1.90
2023-04-25T23:41:56.886Z,2.45
2023-04-25T23:46:58.650Z,2.08
2023-04-25T23:52:00.742Z,2.25
2023-04-25T23:57:04.522Z,2.20
